Home   Weather   Guadeloupe   Basse-Terre   Past weeks
Flag for Guadeloupe

Past Weather in Basse-Terre, Guadeloupe — Yesterday and Last 2 Weeks

Currently: 73 °F. Partly sunny. (Weather station: Le Raizet - Guadeloupe, Guadeloupe). See more current weather

Past Weather in Basse-Terre — Graph

°F

Basse-Terre Temperature Yesterday

Maximum temperature yesterday: 84 °F (at 11:00 am)
Minimum temperature yesterday: 72 °F (at 2:30 am)
Average temperature yesterday: 77 °F

High & Low Weather Summary for the Past Weeks

 TemperatureHumidityPressure
High86 °F (Feb 13, 1:30 pm)94% (Feb 11, 8:00 pm)30.12 "Hg (Feb 11, 8:00 pm)
Low68 °F (Feb 12, 3:00 am)45% (Feb 23, 12:30 pm)29.95 "Hg (Feb 11, 5:00 pm)
Average77 °F75%30.04 "Hg
* Reported Feb 11 5:00 pm — Feb 26 5:00 pm, Basse-Terre. Weather by CustomWeather, © 2021

Note: Actual official high and low records may vary slightly from our data, if they occured in-between our weather recording intervals... More about our weather records

Basse-Terre Weather History for the Previous 24 Hours

Scroll right to see more
 ConditionsComfort  
Time TempWeatherWind HumidityBarometerVisibility
5:00 pm
Fri, Feb 26
72 °FLight rain. Broken clouds.16 mph88%29.98 "HgN/A
4:30 pm81 °FPartly sunny.14 mph70%29.98 "HgN/A
4:00 pm81 °FBroken clouds.13 mph66%29.95 "HgN/A
3:30 pm81 °FBroken clouds.13 mph62%29.95 "HgN/A
3:00 pm77 °FLight rain. Partly sunny.14 mph79%29.98 "HgN/A
2:30 pm82 °FPassing clouds.16 mph58%29.98 "HgN/A
2:00 pm81 °FBroken clouds.15 mph58%29.98 "HgN/A
1:30 pm82 °FBroken clouds.14 mph62%30.01 "HgN/A
1:00 pm82 °FScattered clouds.18 mph62%30.01 "HgN/A
12:30 pm81 °FScattered clouds.14 mph70%30.01 "HgN/A
12:00 pm77 °FBroken clouds.6 mph89%30.04 "HgN/A
11:30 am81 °FHeavy rain. Partly sunny.14 mph70%30.04 "HgN/A
11:00 am82 °FBroken clouds.18 mph62%30.04 "HgN/A
10:30 am81 °FScattered clouds.16 mph66%30.04 "HgN/A
10:00 am82 °FBroken clouds.15 mph62%30.04 "HgN/A
9:30 am79 °FBroken clouds.13 mph70%30.04 "HgN/A
9:00 am81 °FScattered clouds.10 mph70%30.04 "HgN/A
8:30 am79 °FPassing clouds.8 mph74%30.04 "HgN/A
8:00 am77 °FPartly sunny.7 mph79%30.01 "HgN/A
7:30 am75 °FPassing clouds.3 mph83%30.01 "HgN/A
7:00 am73 °FScattered clouds.5 mph89%30.01 "HgN/A
6:30 am73 °FRain. Broken clouds.9 mph89%30.01 "Hg5 mi
6:00 am72 °FClear.6 mph88%29.98 "Hg10 mi
5:30 am72 °FClear.6 mph88%29.98 "Hg10 mi
5:00 am72 °FPartly cloudy.5 mph88%29.98 "HgN/A
4:30 am72 °FRain. Passing clouds.10 mph88%29.98 "Hg4 mi
4:00 am72 °FPassing clouds.6 mph88%29.98 "HgN/A
3:30 am72 °FRain. Fog.12 mph88%29.98 "Hg2 mi
2:30 am73 °FPassing clouds.6 mph83%29.98 "HgN/A
2:00 am73 °FPassing clouds.6 mph83%30.01 "HgN/A
1:30 am73 °FClear.7 mph83%30.01 "Hg10 mi
1:00 am73 °FClear.8 mph78%30.01 "Hg10 mi
12:30 am73 °FClear.8 mph83%30.04 "Hg10 mi
12:00 am73 °FPassing clouds.8 mph83%30.04 "HgN/A
11:30 pm
Thu, Feb 25
73 °FClear.7 mph83%30.04 "Hg10 mi
11:00 pm72 °FClear.7 mph83%30.04 "Hg10 mi
10:30 pm72 °FClear.5 mph83%30.04 "Hg10 mi
10:00 pm72 °FClear.6 mph83%30.04 "Hg10 mi
9:30 pm72 °FPassing clouds.6 mph83%30.04 "HgN/A
9:00 pm72 °FPartly cloudy.13 mph88%30.04 "Hg5 mi
8:30 pm73 °FClear.13 mph74%30.04 "Hg10 mi
8:00 pm72 °FPassing clouds.6 mph83%30.04 "HgN/A
7:30 pm72 °FPassing clouds.8 mph83%30.04 "HgN/A
7:00 pm75 °FPassing clouds.9 mph78%30.01 "HgN/A
6:30 pm77 °FPassing clouds.13 mph74%30.01 "HgN/A
6:00 pm79 °FScattered clouds.15 mph70%30.01 "HgN/A
Weather by CustomWeather, © 2021

See weather overview